Time;durP1;ratioP1;P1;durP2;ratioP2;P2;SDS_P1;SDS_P2;PMS_P1;PMS_P2;Temp;Humidity;BMP_temperature;BMP_pressure;BME280_temperature;BME280_humidity;BME280_pressure;Samples;Min_cycle;Max_cycle;Signal;HPM_P1;HPM_P2
2022/07/05 00:02:12;;;;;;;7.07;2.10;;;13.30;99.90;;;;;;5047211;28;20045;-80
2022/07/05 00:04:38;;;;;;;5.65;2.03;;;13.20;99.90;;;;;;5044107;28;20761;-80
2022/07/05 00:07:18;;;;;;;5.25;2.10;;;13.10;99.90;;;;;;5093787;27;20044;-80
2022/07/05 00:09:56;;;;;;;3.53;1.92;;;13.10;99.90;;;;;;5052931;28;20083;-80
2022/07/05 00:12:32;;;;;;;4.30;1.88;;;13.50;99.90;;;;;;5089589;27;20132;-80
2022/07/05 00:14:59;;;;;;;4.82;2.13;;;13.10;99.90;;;;;;5081461;28;20037;-80
2022/07/05 00:17:24;;;;;;;3.42;1.80;;;13.00;99.90;;;;;;5056270;28;20670;-79
2022/07/05 00:19:50;;;;;;;5.65;2.10;;;13.00;99.90;;;;;;5061803;28;20048;-80
2022/07/05 00:22:16;;;;;;;5.25;2.75;;;12.90;99.90;;;;;;5044383;28;20792;-80
2022/07/05 00:24:41;;;;;;;6.38;2.60;;;12.90;99.90;;;;;;5052531;28;20079;-80
2022/07/05 00:27:07;;;;;;;4.18;2.10;;;12.90;99.90;;;;;;5049924;28;20047;-81
2022/07/05 00:29:33;;;;;;;5.68;2.40;;;12.90;99.90;;;;;;5062454;28;20064;-81
2022/07/05 00:31:58;;;;;;;6.30;2.80;;;12.80;99.90;;;;;;5056343;28;20090;-80
2022/07/05 00:34:24;;;;;;;8.15;2.72;;;12.80;99.90;;;;;;5050802;28;20110;-81
2022/07/05 00:36:50;;;;;;;5.47;2.20;;;12.80;99.90;;;;;;5047075;28;20045;-80
2022/07/05 00:39:16;;;;;;;4.82;2.28;;;12.80;99.90;;;;;;5052342;28;20097;-80
2022/07/05 00:41:41;;;;;;;4.28;2.10;;;12.80;99.90;;;;;;5045117;28;20099;-81
2022/07/05 00:44:10;;;;;;;4.70;2.38;;;12.80;99.90;;;;;;5051834;28;20857;-80
2022/07/05 00:46:37;;;;;;;4.15;2.20;;;13.20;99.90;;;;;;5049291;28;20165;-80
2022/07/05 00:49:04;;;;;;;6.47;2.53;;;12.80;99.90;;;;;;5059157;28;20109;-80
2022/07/05 00:51:32;;;;;;;5.38;2.20;;;12.80;99.90;;;;;;5084246;28;20067;-80
2022/07/05 00:53:59;;;;;;;4.75;2.08;;;12.70;99.90;;;;;;5055570;28;20075;-80
2022/07/05 00:56:25;;;;;;;4.00;2.00;;;12.70;99.90;;;;;;5044948;28;20055;-80
2022/07/05 00:58:51;;;;;;;4.15;1.83;;;12.60;99.90;;;;;;5056123;28;20132;-80
2022/07/05 01:01:18;;;;;;;4.93;2.28;;;13.00;99.90;;;;;;5055832;28;20122;-81
2022/07/05 01:03:44;;;;;;;3.80;2.35;;;12.60;99.90;;;;;;5058045;28;20041;-80
2022/07/05 01:06:11;;;;;;;7.95;2.38;;;13.40;99.90;;;;;;5089826;28;20059;-80
2022/07/05 01:08:39;;;;;;;6.80;2.90;;;12.60;99.90;;;;;;5059479;28;20059;-80
2022/07/05 01:11:06;;;;;;;6.75;2.60;;;12.60;99.90;;;;;;5050207;28;20070;-80
2022/07/05 01:13:33;;;;;;;4.28;2.15;;;12.60;99.90;;;;;;5054703;28;20532;-80
2022/07/05 01:16:00;;;;;;;3.92;2.03;;;12.60;99.90;;;;;;5053151;28;20125;-80
2022/07/05 01:18:26;;;;;;;4.20;2.15;;;12.50;99.90;;;;;;5055293;28;20040;-80
2022/07/05 01:20:52;;;;;;;4.93;2.25;;;12.50;99.90;;;;;;5056260;28;20036;-80
2022/07/05 01:23:19;;;;;;;4.72;2.13;;;12.40;99.90;;;;;;5053706;28;20043;-80
2022/07/05 01:25:47;;;;;;;7.00;2.70;;;12.40;99.90;;;;;;5047833;28;20162;-80
2022/07/05 01:28:13;;;;;;;5.60;2.40;;;12.40;99.90;;;;;;5050121;28;20051;-80
2022/07/05 01:30:39;;;;;;;5.70;2.30;;;12.30;99.90;;;;;;5046968;28;20041;-80
2022/07/05 01:33:06;;;;;;;5.75;2.33;;;12.30;99.90;;;;;;5041298;28;20048;-80
2022/07/05 01:35:33;;;;;;;5.82;2.70;;;12.30;99.90;;;;;;5060782;28;20221;-79
2022/07/05 01:37:59;;;;;;;4.32;2.00;;;12.30;99.90;;;;;;5085574;28;20387;-80
2022/07/05 01:40:25;;;;;;;3.92;2.17;;;12.40;99.90;;;;;;5050740;28;20059;-80
2022/07/05 01:42:51;;;;;;;5.25;2.72;;;12.40;99.90;;;;;;5059660;28;20044;-80
2022/07/05 01:46:02;;;;;;;8.20;2.42;;;12.30;99.90;;;;;;5057906;28;20047;-81
2022/07/05 01:48:09;;;;;;;4.22;2.30;;;12.30;99.90;;;;;;5053619;28;20051;-80
2022/07/05 01:50:48;;;;;;;5.00;2.67;;;12.30;99.90;;;;;;5088179;28;20070;-81
2022/07/05 01:53:23;;;;;;;3.80;2.10;;;12.30;99.90;;;;;;5063605;28;20049;-82
2022/07/05 01:55:49;;;;;;;5.35;2.70;;;12.30;99.90;;;;;;5093395;28;20238;-81
2022/07/05 01:58:16;;;;;;;4.03;2.53;;;12.30;99.90;;;;;;5062163;28;20059;-81
2022/07/05 02:00:46;;;;;;;4.30;2.25;;;12.30;99.90;;;;;;5052656;28;20690;-81
2022/07/05 02:03:13;;;;;;;6.30;2.90;;;12.30;99.90;;;;;;5057915;28;20072;-80
2022/07/05 02:05:41;;;;;;;4.10;2.50;;;12.30;99.90;;;;;;5058724;28;20041;-81
2022/07/05 02:08:07;;;;;;;5.85;2.70;;;12.30;99.90;;;;;;5096520;28;20086;-81
2022/07/05 02:10:35;;;;;;;5.65;2.42;;;12.30;99.90;;;;;;5052806;28;20155;-81
2022/07/05 02:13:01;;;;;;;4.65;2.42;;;12.30;99.90;;;;;;5075585;28;20044;-80
2022/07/05 02:15:29;;;;;;;5.43;2.72;;;12.30;99.90;;;;;;5055807;28;20080;-81
2022/07/05 02:17:54;;;;;;;4.82;2.97;;;12.20;99.90;;;;;;5061632;28;20105;-81
2022/07/05 02:20:20;;;;;;;7.22;2.90;;;12.20;99.90;;;;;;5084684;28;20044;-81
2022/07/05 02:22:46;;;;;;;4.45;2.50;;;12.20;99.90;;;;;;5056911;28;20456;-80
2022/07/05 02:25:11;;;;;;;4.50;2.83;;;12.20;99.90;;;;;;5054818;28;20105;-80
2022/07/05 02:27:37;;;;;;;8.55;3.08;;;12.20;99.90;;;;;;5059453;28;20054;-81
2022/07/05 02:30:03;;;;;;;4.57;2.97;;;12.20;99.90;;;;;;5056952;28;20076;-81
2022/07/05 02:32:31;;;;;;;6.10;3.25;;;12.20;99.90;;;;;;5061073;28;20419;-80
2022/07/05 02:34:57;;;;;;;6.18;3.03;;;12.20;99.90;;;;;;5056770;28;20060;-80
2022/07/05 02:37:22;;;;;;;5.53;3.33;;;12.20;99.90;;;;;;5053523;28;20057;-81
2022/07/05 02:39:48;;;;;;;5.53;3.00;;;12.10;99.90;;;;;;5046122;28;20049;-79
2022/07/05 02:42:14;;;;;;;9.60;3.58;;;12.10;99.90;;;;;;5058912;28;20052;-81
2022/07/05 02:44:39;;;;;;;7.25;3.50;;;12.10;99.90;;;;;;5054968;28;20247;-81
2022/07/05 02:47:05;;;;;;;5.30;3.58;;;12.10;99.90;;;;;;5045665;28;20121;-80
2022/07/05 02:49:31;;;;;;;7.30;3.17;;;12.00;99.90;;;;;;5082536;28;20048;-81
2022/07/05 02:51:56;;;;;;;4.97;3.15;;;12.00;99.90;;;;;;5042132;28;20076;-81
2022/07/05 02:54:22;;;;;;;5.20;2.92;;;12.10;99.90;;;;;;5041161;28;20665;-79
2022/07/05 02:56:47;;;;;;;5.82;3.45;;;12.00;99.90;;;;;;5078053;27;20087;-81
2022/07/05 02:59:13;;;;;;;6.18;3.33;;;12.00;99.90;;;;;;5042149;28;20052;-81
2022/07/05 03:01:39;;;;;;;5.70;2.95;;;12.00;99.90;;;;;;5042033;28;20075;-81
2022/07/05 03:04:06;;;;;;;6.57;3.45;;;12.00;99.90;;;;;;5057933;28;20045;-80
2022/07/05 03:06:32;;;;;;;6.63;3.40;;;12.30;99.90;;;;;;5051507;28;20604;-80
2022/07/05 03:08:58;;;;;;;5.20;3.40;;;12.00;99.90;;;;;;5050196;28;20044;-81
2022/07/05 03:11:23;;;;;;;8.02;3.53;;;11.90;99.90;;;;;;5057049;28;20044;-80
2022/07/05 03:13:49;;;;;;;5.70;3.28;;;11.90;99.90;;;;;;5047006;28;20048;-80
2022/07/05 03:16:15;;;;;;;5.75;3.28;;;11.80;99.90;;;;;;5083153;28;20063;-80
2022/07/05 03:18:40;;;;;;;8.75;4.03;;;11.80;99.90;;;;;;5043159;28;20442;-80
2022/07/05 03:21:06;;;;;;;8.00;3.85;;;11.80;99.90;;;;;;5092438;28;20094;-80
2022/07/05 03:23:32;;;;;;;6.93;4.40;;;11.80;99.90;;;;;;5055681;28;20060;-80
2022/07/05 03:25:57;;;;;;;6.50;4.20;;;11.80;99.90;;;;;;5053937;27;20099;-79
2022/07/05 03:28:23;;;;;;;6.55;4.30;;;11.80;99.90;;;;;;5056581;28;20121;-80
2022/07/05 03:30:49;;;;;;;8.40;3.92;;;11.80;99.90;;;;;;5049957;28;20064;-80
2022/07/05 03:33:14;;;;;;;5.78;4.10;;;11.80;99.90;;;;;;5056669;28;20050;-81
2022/07/05 03:35:40;;;;;;;6.55;4.68;;;11.70;99.90;;;;;;5059055;28;20555;-80
2022/07/05 03:38:06;;;;;;;6.20;3.83;;;11.70;99.90;;;;;;5042574;28;20049;-80
2022/07/05 03:40:32;;;;;;;10.00;3.83;;;11.80;99.90;;;;;;5056289;28;20894;-80
2022/07/05 03:42:57;;;;;;;6.22;3.45;;;11.70;99.90;;;;;;5060159;28;20813;-79
2022/07/05 03:45:23;;;;;;;6.50;3.40;;;11.70;99.90;;;;;;5054017;28;20041;-80
2022/07/05 03:47:49;;;;;;;5.07;3.30;;;11.70;99.90;;;;;;5050850;28;20037;-80
2022/07/05 03:50:14;;;;;;;6.03;3.42;;;12.10;99.90;;;;;;5051550;28;20096;-80
2022/07/05 03:52:40;;;;;;;7.50;3.80;;;11.70;99.90;;;;;;5042380;28;20079;-80
2022/07/05 03:55:06;;;;;;;8.00;4.28;;;11.60;99.90;;;;;;5048466;28;20637;-80
2022/07/05 03:57:32;;;;;;;6.50;3.92;;;11.60;99.90;;;;;;5060652;28;20048;-80
2022/07/05 03:59:58;;;;;;;7.15;4.07;;;11.70;99.90;;;;;;5052754;28;20048;-80
2022/07/05 04:02:23;;;;;;;8.98;4.38;;;11.70;99.90;;;;;;5050398;28;20871;-80
2022/07/05 04:04:49;;;;;;;7.60;5.18;;;11.70;99.90;;;;;;5056986;28;20067;-79
2022/07/05 04:07:14;;;;;;;7.70;5.57;;;12.40;99.90;;;;;;5049070;28;20052;-79
2022/07/05 04:09:40;;;;;;;8.15;5.85;;;11.70;99.90;;;;;;5053582;28;20032;-80
2022/07/05 04:12:06;;;;;;;7.07;5.43;;;11.70;99.90;;;;;;5057062;28;20040;-79
2022/07/05 04:14:32;;;;;;;7.75;6.00;;;11.60;99.90;;;;;;5053408;28;20133;-80
2022/07/05 04:16:58;;;;;;;9.02;5.80;;;11.70;99.90;;;;;;5051907;28;20072;-80
2022/07/05 04:19:23;;;;;;;9.32;5.70;;;11.70;99.90;;;;;;5050319;28;20127;-80
2022/07/05 04:21:49;;;;;;;8.00;5.57;;;11.70;99.90;;;;;;5055657;28;20496;-80
2022/07/05 04:24:15;;;;;;;8.48;5.85;;;11.70;99.90;;;;;;5093951;28;20090;-81
2022/07/05 04:26:41;;;;;;;8.32;5.53;;;11.70;99.90;;;;;;5057139;28;20517;-80
2022/07/05 04:29:06;;;;;;;10.00;6.03;;;11.80;99.90;;;;;;5073394;28;20669;-80
2022/07/05 04:31:32;;;;;;;9.75;5.57;;;11.90;99.90;;;;;;5060530;28;20051;-80
2022/07/05 04:33:58;;;;;;;9.52;6.28;;;11.80;99.90;;;;;;5043343;28;20057;-79
2022/07/05 04:36:24;;;;;;;10.13;6.95;;;11.80;99.90;;;;;;5088492;28;20097;-80
2022/07/05 04:38:50;;;;;;;9.70;6.40;;;11.80;99.90;;;;;;5078657;28;20668;-80
2022/07/05 04:41:16;;;;;;;13.20;6.55;;;11.90;99.90;;;;;;5061685;28;20430;-80
2022/07/05 04:43:42;;;;;;;11.05;6.10;;;12.00;99.90;;;;;;5045155;28;20091;-80
2022/07/05 04:46:08;;;;;;;9.02;5.90;;;12.00;99.90;;;;;;5050528;28;20631;-79
2022/07/05 04:48:33;;;;;;;8.48;6.28;;;12.20;99.90;;;;;;5061877;28;20033;-80
2022/07/05 04:50:59;;;;;;;9.45;6.05;;;12.10;99.90;;;;;;5040474;28;20052;-80
2022/07/05 04:53:25;;;;;;;10.60;6.88;;;12.20;99.90;;;;;;5057746;28;20049;-80
2022/07/05 04:55:51;;;;;;;8.48;5.05;;;12.40;99.90;;;;;;5057449;28;20052;-79
2022/07/05 04:58:17;;;;;;;11.45;5.85;;;12.30;99.90;;;;;;5055723;28;20182;-80
2022/07/05 05:00:42;;;;;;;8.10;6.68;;;12.40;99.90;;;;;;5068255;28;20491;-80
2022/07/05 05:03:08;;;;;;;10.27;6.20;;;12.40;99.90;;;;;;5066290;28;20445;-80
2022/07/05 05:05:33;;;;;;;11.95;6.20;;;12.40;99.90;;;;;;5062743;28;20115;-81
2022/07/05 05:07:59;;;;;;;10.52;6.82;;;12.40;99.90;;;;;;5087242;27;20032;-80
2022/07/05 05:10:25;;;;;;;11.10;6.68;;;12.50;99.90;;;;;;5092168;27;20180;-81
2022/07/05 05:12:50;;;;;;;9.68;6.32;;;12.50;99.90;;;;;;5084463;28;20053;-80
2022/07/05 05:15:16;;;;;;;11.02;6.55;;;12.50;99.90;;;;;;5054880;28;20060;-81
2022/07/05 05:17:43;;;;;;;9.07;5.60;;;12.60;99.90;;;;;;5041740;28;20044;-82
2022/07/05 05:20:14;;;;;;;10.20;5.90;;;12.60;99.90;;;;;;5052455;28;20094;-82
2022/07/05 05:22:40;;;;;;;9.05;5.68;;;12.60;99.90;;;;;;5060382;28;20040;-81
2022/07/05 05:25:08;;;;;;;10.43;6.50;;;12.60;99.90;;;;;;5060338;28;20151;-81
2022/07/05 05:27:33;;;;;;;9.23;5.55;;;12.60;99.90;;;;;;5044225;28;20052;-81
2022/07/05 05:29:59;;;;;;;8.23;5.47;;;12.70;99.90;;;;;;5053481;28;20051;-82
2022/07/05 05:32:25;;;;;;;11.10;6.10;;;12.70;99.90;;;;;;5057947;28;20161;-82
2022/07/05 05:34:51;;;;;;;7.10;5.15;;;12.70;99.90;;;;;;5066516;28;20060;-83
2022/07/05 05:37:16;;;;;;;7.93;4.95;;;12.70;99.90;;;;;;5088473;28;20052;-82
2022/07/05 05:39:42;;;;;;;8.90;5.05;;;12.80;99.90;;;;;;5062717;28;20040;-84
2022/07/05 05:42:08;;;;;;;8.60;4.88;;;13.00;99.90;;;;;;5076430;28;20763;-85
2022/07/05 05:44:33;;;;;;;8.57;5.50;;;12.90;99.90;;;;;;5050398;27;20045;-85
2022/07/05 05:46:59;;;;;;;8.98;4.97;;;12.90;99.90;;;;;;5040350;28;20056;-83
2022/07/05 05:49:24;;;;;;;7.45;5.00;;;13.00;99.90;;;;;;5039443;28;20095;-87
2022/07/05 05:51:50;;;;;;;8.07;5.10;;;13.00;99.90;;;;;;5066766;28;20089;-81
2022/07/05 05:54:16;;;;;;;8.77;4.70;;;13.10;99.90;;;;;;5060477;28;20098;-83
2022/07/05 05:56:41;;;;;;;9.73;5.28;;;13.20;99.90;;;;;;5057477;28;20041;-83
2022/07/05 05:59:08;;;;;;;10.02;5.10;;;13.20;99.90;;;;;;5059099;28;20044;-82
2022/07/05 06:01:33;;;;;;;8.77;4.82;;;13.30;99.90;;;;;;5041029;28;20111;-85
2022/07/05 06:03:59;;;;;;;7.60;4.68;;;13.40;99.90;;;;;;5062461;28;20830;-84
2022/07/05 06:06:25;;;;;;;8.52;4.18;;;13.40;99.90;;;;;;5067963;28;20056;-83
2022/07/05 06:08:50;;;;;;;6.53;3.78;;;13.50;99.90;;;;;;5064419;28;20043;-85
2022/07/05 06:11:16;;;;;;;6.40;4.20;;;13.60;99.90;;;;;;5062230;28;20051;-83
2022/07/05 06:13:42;;;;;;;5.45;3.10;;;13.70;99.90;;;;;;5053503;28;20035;-86
2022/07/05 06:16:08;;;;;;;7.80;3.25;;;13.80;99.90;;;;;;5057383;28;20837;-84
2022/07/05 06:18:33;;;;;;;6.00;2.42;;;13.90;99.90;;;;;;5042453;28;20045;-86
2022/07/05 06:20:59;;;;;;;7.57;2.70;;;13.90;99.90;;;;;;5056347;28;20060;-86
2022/07/05 06:23:24;;;;;;;7.38;3.00;;;14.70;99.90;;;;;;5061205;28;20121;-85
2022/07/05 06:25:50;;;;;;;9.45;3.20;;;14.10;99.90;;;;;;5060087;28;20059;-86
2022/07/05 06:28:16;;;;;;;6.63;2.90;;;14.10;99.90;;;;;;5059667;28;20041;-86
2022/07/05 06:30:42;;;;;;;4.88;2.55;;;14.20;99.90;;;;;;5060754;28;20143;-85
2022/07/05 06:33:08;;;;;;;6.38;2.30;;;14.30;99.90;;;;;;5051826;28;20064;-85
2022/07/05 06:35:34;;;;;;;5.05;2.33;;;14.30;99.90;;;;;;5059631;27;20826;-82
2022/07/05 06:38:05;;;;;;;6.15;2.38;;;14.40;99.90;;;;;;5058988;28;20036;-82
2022/07/05 06:40:32;;;;;;;5.65;1.98;;;14.50;99.90;;;;;;5053611;28;20037;-82
2022/07/05 06:43:01;;;;;;;5.82;2.10;;;15.20;99.90;;;;;;5039114;28;20060;-82
2022/07/05 06:45:27;;;;;;;5.18;1.73;;;14.80;99.90;;;;;;5040498;28;20111;-82
2022/07/05 06:48:09;;;;;;;5.40;1.73;;;14.90;99.90;;;;;;5052547;28;20148;-82
2022/07/05 06:50:40;;;;;;;5.60;2.08;;;15.00;99.90;;;;;;5059988;28;20048;-82
2022/07/05 06:53:07;;;;;;;5.30;1.50;;;15.60;99.90;;;;;;5058049;28;20056;-82
2022/07/05 06:55:32;;;;;;;7.38;1.77;;;15.20;99.90;;;;;;5058240;28;20044;-82
2022/07/05 06:58:00;;;;;;;5.28;1.42;;;15.30;99.90;;;;;;5046721;28;20049;-83
2022/07/05 07:00:26;;;;;;;4.18;1.10;;;15.30;99.90;;;;;;5038021;28;20052;-82
2022/07/05 07:02:52;;;;;;;4.72;1.00;;;15.40;99.90;;;;;;5038060;28;20520;-82
2022/07/05 07:05:18;;;;;;;3.35;1.10;;;15.40;99.90;;;;;;5040339;28;20153;-82
2022/07/05 07:10:27;;;;;;;3.33;1.03;;;15.70;99.90;;;;;;5079292;28;20060;-82
2022/07/05 07:12:53;;;;;;;6.05;1.30;;;16.30;99.90;;;;;;5058046;28;20299;-82
2022/07/05 07:15:19;;;;;;;4.28;0.75;;;16.20;99.90;;;;;;5058534;28;20563;-82
2022/07/05 07:17:44;;;;;;;4.25;0.85;;;16.40;99.90;;;;;;5060045;28;20054;-82
2022/07/05 07:20:10;;;;;;;7.35;0.95;;;16.80;99.90;;;;;;5044292;28;20060;-82
2022/07/05 07:22:36;;;;;;;5.25;1.25;;;17.10;99.90;;;;;;5071157;28;20442;-82
2022/07/05 07:25:02;;;;;;;5.95;1.05;;;18.10;99.90;;;;;;5049017;28;20238;-82
2022/07/05 07:27:28;;;;;;;4.20;0.90;;;17.80;99.90;;;;;;5044578;28;20093;-82
2022/07/05 07:29:54;;;;;;;5.82;1.08;;;18.20;99.90;;;;;;5058968;28;20041;-83
2022/07/05 07:32:19;;;;;;;6.03;1.05;;;18.60;99.90;;;;;;5051583;28;20055;-82
2022/07/05 07:34:45;;;;;;;5.70;0.90;;;18.60;99.90;;;;;;5071305;28;20065;-82
2022/07/05 07:37:13;;;;;;;3.63;0.70;;;18.50;99.90;;;;;;5039752;28;20091;-82
2022/07/05 07:39:39;;;;;;;4.28;1.02;;;18.70;99.90;;;;;;5039551;28;20040;-83
2022/07/05 07:42:07;;;;;;;5.28;0.88;;;18.60;99.90;;;;;;5039559;28;20051;-82
2022/07/05 07:44:32;;;;;;;3.72;0.98;;;18.60;99.90;;;;;;5059647;28;20037;-82
2022/07/05 07:46:58;;;;;;;4.07;0.82;;;18.40;99.90;;;;;;5058267;28;20063;-82
2022/07/05 07:49:24;;;;;;;6.60;0.80;;;18.70;99.90;;;;;;5057435;28;20063;-82
2022/07/05 07:51:51;;;;;;;3.92;1.00;;;18.10;99.90;;;;;;5051024;28;20047;-82
2022/07/05 07:54:16;;;;;;;4.50;0.80;;;18.10;99.90;;;;;;5041697;28;20159;-82
2022/07/05 07:56:42;;;;;;;2.30;0.80;;;18.20;99.90;;;;;;5059106;28;20052;-82
2022/07/05 07:59:08;;;;;;;4.03;0.95;;;18.70;99.90;;;;;;5055165;28;20044;-82
2022/07/05 08:01:35;;;;;;;6.57;1.00;;;18.80;99.90;;;;;;5039055;28;20114;-82
2022/07/05 08:04:00;;;;;;;3.53;0.65;;;18.80;99.90;;;;;;5070348;28;20045;-82
2022/07/05 08:06:26;;;;;;;4.95;0.90;;;19.10;99.90;;;;;;5071760;28;20045;-82
2022/07/05 08:08:52;;;;;;;3.70;0.70;;;19.30;99.90;;;;;;5040989;28;20087;-82
2022/07/05 08:11:17;;;;;;;3.83;0.75;;;19.40;99.90;;;;;;5078075;28;20462;-82
2022/07/05 08:13:43;;;;;;;3.67;0.82;;;19.30;99.90;;;;;;5077940;28;20087;-82
2022/07/05 08:16:10;;;;;;;4.05;1.02;;;19.20;99.90;;;;;;5079117;28;20639;-82
2022/07/05 08:21:32;;;;;;;2.88;0.80;;;19.00;99.90;;;;;;5050990;28;20053;-82
2022/07/05 08:23:59;;;;;;;6.38;0.60;;;18.80;99.90;;;;;;5043264;28;20071;-82
2022/07/05 08:26:25;;;;;;;3.65;0.68;;;18.50;99.90;;;;;;5057258;28;20056;-82
2022/07/05 08:28:51;;;;;;;2.67;0.70;;;18.60;99.90;;;;;;5058765;28;20036;-82
2022/07/05 08:31:16;;;;;;;4.10;0.60;;;18.60;99.90;;;;;;5046681;28;20052;-82
2022/07/05 08:33:42;;;;;;;5.93;0.75;;;18.60;99.90;;;;;;5070606;28;20056;-82
2022/07/05 08:36:08;;;;;;;2.58;0.70;;;18.70;99.90;;;;;;5038610;28;20539;-82
2022/07/05 08:38:33;;;;;;;5.65;0.90;;;18.90;99.90;;;;;;5041642;28;20118;-82
2022/07/05 08:41:00;;;;;;;2.58;0.50;;;19.10;99.90;;;;;;5058519;28;20072;-81
2022/07/05 08:43:28;;;;;;;3.97;0.70;;;19.20;99.90;;;;;;5040441;28;20658;-82
2022/07/05 08:45:56;;;;;;;6.75;0.75;;;19.50;99.90;;;;;;5073784;28;20123;-81
2022/07/05 08:48:24;;;;;;;2.92;0.60;;;19.80;99.90;;;;;;5040898;28;20049;-82
2022/07/05 08:50:51;;;;;;;2.42;0.73;;;20.00;99.90;;;;;;5088552;28;20052;-82
2022/07/05 08:53:18;;;;;;;3.60;0.60;;;19.60;99.90;;;;;;5060875;28;20045;-82
2022/07/05 08:55:45;;;;;;;3.13;0.77;;;19.40;99.90;;;;;;5048704;28;20052;-82
2022/07/05 08:58:11;;;;;;;6.60;0.80;;;19.30;99.90;;;;;;5041342;28;20078;-81
2022/07/05 09:00:42;;;;;;;5.55;0.70;;;19.30;99.90;;;;;;5074232;28;20049;-82
2022/07/05 09:03:08;;;;;;;2.75;0.80;;;19.20;99.90;;;;;;5040717;28;20055;-82
2022/07/05 09:05:42;;;;;;;5.15;0.88;;;19.20;99.90;;;;;;5041095;28;20053;-81
2022/07/05 09:08:12;;;;;;;4.88;1.33;;;19.10;99.90;;;;;;5044218;28;20246;-82
2022/07/05 09:10:39;;;;;;;3.50;0.95;;;19.10;99.90;;;;;;5050708;28;20839;-81
2022/07/05 09:13:05;;;;;;;1.40;0.50;;;19.00;99.90;;;;;;5041950;28;20055;-81
2022/07/05 09:15:30;;;;;;;3.58;0.75;;;19.10;99.90;;;;;;5040097;28;20044;-82
2022/07/05 09:17:56;;;;;;;4.30;0.75;;;19.00;99.90;;;;;;5042124;28;20049;-82
2022/07/05 09:20:22;;;;;;;3.08;0.82;;;19.00;99.90;;;;;;5073904;28;20056;-82
2022/07/05 09:22:54;;;;;;;3.22;0.60;;;19.10;99.90;;;;;;5053602;28;20118;-81
2022/07/05 09:25:27;;;;;;;2.20;0.70;;;19.30;99.90;;;;;;5060756;28;20055;-81
2022/07/05 09:27:58;;;;;;;6.10;0.65;;;19.50;99.90;;;;;;5049417;28;20048;-82
2022/07/05 09:30:30;;;;;;;3.83;0.90;;;19.60;99.90;;;;;;5042405;28;20056;-82
2022/07/05 09:33:06;;;;;;;5.63;0.82;;;19.80;99.90;;;;;;5039590;28;20080;-82
2022/07/05 09:35:34;;;;;;;3.47;0.60;;;19.70;99.90;;;;;;5060662;28;20053;-81
2022/07/05 09:38:02;;;;;;;3.28;1.13;;;19.60;99.90;;;;;;5093584;28;20134;-82
2022/07/05 09:40:32;;;;;;;3.88;0.65;;;19.70;99.90;;;;;;5045225;28;20121;-82
2022/07/05 09:43:18;;;;;;;5.38;0.80;;;19.80;99.90;;;;;;5041216;28;20135;-81
2022/07/05 09:46:13;;;;;;;2.10;0.60;;;20.00;99.90;;;;;;5040137;28;20449;-82
2022/07/05 09:48:50;;;;;;;;;;;20.20;99.90;;;;;;5027280;28;20060;-82
2022/07/05 09:51:15;;;;;;;2.88;0.60;;;20.30;99.90;;;;;;5041874;28;19929;-81
2022/07/05 09:53:52;;;;;;;2.20;0.80;;;20.50;99.90;;;;;;5087994;28;20040;-81
2022/07/05 09:56:18;;;;;;;3.33;0.82;;;20.70;99.90;;;;;;5057269;28;20045;-81
2022/07/05 09:58:45;;;;;;;1.98;0.60;;;21.00;99.90;;;;;;5059724;28;20045;-82
2022/07/05 10:01:28;;;;;;;2.15;0.63;;;21.10;99.90;;;;;;5059375;28;20044;-82
2022/07/05 10:03:58;;;;;;;2.17;0.60;;;21.10;99.60;;;;;;5045768;28;20049;-82
2022/07/05 10:06:26;;;;;;;4.28;0.73;;;21.10;99.40;;;;;;5041354;28;20377;-81
2022/07/05 10:08:55;;;;;;;2.97;0.77;;;21.00;99.00;;;;;;5059162;28;20051;-82
2022/07/05 10:11:23;;;;;;;2.15;0.52;;;20.90;98.30;;;;;;5052923;28;20056;-82
2022/07/05 10:13:51;;;;;;;2.10;0.52;;;21.00;99.30;;;;;;5040752;28;20045;-82
2022/07/05 10:16:18;;;;;;;4.75;0.80;;;20.80;99.50;;;;;;5041580;28;20115;-82
2022/07/05 10:18:46;;;;;;;4.70;0.70;;;20.70;99.20;;;;;;5044798;28;20110;-82
2022/07/05 10:21:15;;;;;;;3.10;0.63;;;20.70;99.10;;;;;;5093299;28;20045;-82
2022/07/05 10:23:51;;;;;;;3.85;0.90;;;20.60;99.20;;;;;;5086526;28;20896;-82
2022/07/05 10:26:17;;;;;;;4.05;0.73;;;20.50;99.80;;;;;;5039493;28;20821;-82
2022/07/05 10:28:49;;;;;;;3.40;0.90;;;20.50;99.90;;;;;;5039654;28;20045;-82
2022/07/05 10:31:16;;;;;;;4.78;0.80;;;20.40;99.80;;;;;;5059808;28;20427;-82
2022/07/05 10:33:42;;;;;;;5.93;1.00;;;20.30;99.90;;;;;;5060897;28;20052;-82
2022/07/05 10:36:12;;;;;;;17.02;1.77;;;20.40;99.90;;;;;;5093063;28;20063;-82
2022/07/05 10:38:41;;;;;;;6.15;0.80;;;20.40;99.90;;;;;;5058864;28;20072;-83
2022/07/05 10:41:10;;;;;;;4.28;0.85;;;20.40;99.90;;;;;;5091518;28;20048;-82
2022/07/05 10:43:35;;;;;;;2.78;0.60;;;20.40;99.90;;;;;;5040745;28;20063;-81
2022/07/05 10:46:02;;;;;;;7.75;1.10;;;20.30;99.90;;;;;;5039868;28;20052;-82
2022/07/05 10:48:29;;;;;;;5.85;0.73;;;20.30;99.90;;;;;;5038855;28;20041;-82
2022/07/05 10:50:55;;;;;;;2.63;0.50;;;20.40;99.90;;;;;;5038675;28;20052;-82
2022/07/05 10:54:00;;;;;;;1.83;0.60;;;20.40;99.90;;;;;;5058163;28;20084;-81
2022/07/05 10:56:26;;;;;;;3.55;0.77;;;20.60;99.40;;;;;;5059246;28;20044;-82
2022/07/05 10:59:09;;;;;;;4.10;0.82;;;20.70;99.90;;;;;;5072095;28;20057;-82
2022/07/05 11:01:36;;;;;;;4.00;0.70;;;20.90;99.50;;;;;;5081365;28;20052;-82
2022/07/05 11:04:02;;;;;;;3.15;0.60;;;20.90;99.00;;;;;;5092576;28;20105;-82
2022/07/05 11:06:49;;;;;;;3.38;0.80;;;20.80;98.90;;;;;;5091502;28;20052;-81
2022/07/05 11:09:17;;;;;;;3.67;0.80;;;20.90;99.40;;;;;;5058425;28;20071;-81
2022/07/05 11:11:47;;;;;;;2.97;0.50;;;21.10;98.10;;;;;;5044337;28;20793;-82
2022/07/05 11:14:19;;;;;;;4.25;0.70;;;21.20;97.20;;;;;;5071243;28;20674;-82
2022/07/05 11:16:45;;;;;;;3.03;0.60;;;21.30;95.50;;;;;;5071711;28;20159;-82
2022/07/05 11:19:20;;;;;;;3.78;0.88;;;21.40;96.80;;;;;;5039554;28;20056;-82
2022/07/05 11:22:05;;;;;;;2.20;0.60;;;21.40;96.60;;;;;;5050994;28;20719;-83
2022/07/05 11:24:36;;;;;;;2.35;1.10;;;21.50;95.60;;;;;;5049074;28;20082;-83
2022/07/05 11:27:10;;;;;;;5.07;0.60;;;21.60;97.10;;;;;;5039095;28;20055;-83
2022/07/05 11:29:49;;;;;;;3.15;0.63;;;21.70;96.30;;;;;;5038722;28;20088;-83
2022/07/05 11:32:17;;;;;;;4.78;0.55;;;21.80;95.80;;;;;;5038560;28;20049;-83
2022/07/05 11:34:44;;;;;;;3.25;0.60;;;21.90;95.90;;;;;;5039310;28;20056;-84
2022/07/05 11:37:16;;;;;;;4.13;0.73;;;22.00;96.20;;;;;;5045904;28;20135;-83
2022/07/05 11:39:42;;;;;;;3.45;0.60;;;22.00;96.60;;;;;;5038058;28;20495;-82
2022/07/05 11:42:19;;;;;;;6.22;0.60;;;22.00;96.00;;;;;;5037238;28;20083;-84
2022/07/05 11:44:49;;;;;;;6.03;0.95;;;21.70;95.30;;;;;;5039722;28;21749;-82
2022/07/05 11:47:19;;;;;;;2.17;0.60;;;21.50;96.40;;;;;;5089259;28;20044;-83
2022/07/05 11:49:58;;;;;;;2.95;0.82;;;21.30;96.70;;;;;;5089106;28;20040;-85
2022/07/05 11:52:31;;;;;;;5.63;0.63;;;21.20;96.50;;;;;;5052865;28;20206;-82
2022/07/05 11:54:59;;;;;;;3.47;0.50;;;21.20;96.20;;;;;;5054147;28;20502;-82
2022/07/05 11:57:25;;;;;;;4.55;0.65;;;21.10;96.80;;;;;;5037393;28;20072;-82
2022/07/05 11:59:51;;;;;;;3.05;0.60;;;21.30;96.60;;;;;;5037520;28;20152;-83
2022/07/05 12:02:17;;;;;;;8.23;0.73;;;21.20;96.20;;;;;;5047554;28;20048;-82
2022/07/05 12:04:52;;;;;;;2.42;0.50;;;21.20;95.50;;;;;;5057539;28;20057;-83
2022/07/05 12:07:28;;;;;;;1.83;0.50;;;21.30;95.10;;;;;;5058331;28;20702;-82
2022/07/05 12:12:44;;;;;;;1.50;0.43;;;21.40;95.30;;;;;;5071448;28;20492;-82
2022/07/05 12:15:11;;;;;;;2.10;0.40;;;21.60;94.60;;;;;;5054357;28;20044;-81
2022/07/05 12:17:38;;;;;;;3.10;0.50;;;21.70;95.40;;;;;;5056649;28;20590;-82
2022/07/05 12:20:05;;;;;;;4.78;0.47;;;21.80;94.60;;;;;;5056995;28;20475;-81
2022/07/05 12:22:33;;;;;;;4.18;0.60;;;22.10;94.50;;;;;;5048466;28;20057;-81
2022/07/05 12:25:01;;;;;;;1.45;0.50;;;22.10;94.40;;;;;;5038468;28;20045;-81
2022/07/05 12:27:31;;;;;;;6.43;0.70;;;22.30;93.40;;;;;;5070665;28;20049;-82
2022/07/05 12:29:58;;;;;;;4.68;0.70;;;22.30;94.90;;;;;;5043387;28;20047;-82
2022/07/05 12:32:23;;;;;;;2.60;0.63;;;22.30;95.80;;;;;;5058399;28;20079;-81
2022/07/05 12:34:49;;;;;;;4.90;0.70;;;22.50;96.40;;;;;;5056742;28;20482;-82
2022/07/05 12:37:26;;;;;;;3.25;0.73;;;22.60;95.80;;;;;;5090137;28;20098;-81
2022/07/05 12:40:04;;;;;;;5.45;0.60;;;22.50;95.90;;;;;;5056442;28;20044;-80
2022/07/05 12:42:34;;;;;;;4.60;0.77;;;22.40;96.20;;;;;;5057970;28;20466;-80
2022/07/05 12:45:14;;;;;;;4.30;0.70;;;22.30;96.30;;;;;;5055743;28;20048;-80
2022/07/05 12:47:53;;;;;;;6.38;0.70;;;22.50;95.70;;;;;;5055184;28;20098;-80
2022/07/05 12:50:24;;;;;;;9.27;0.85;;;22.70;95.70;;;;;;5037726;28;20045;-80
2022/07/05 12:58:49;;;;;;;3.25;0.60;;;22.60;95.70;;;;;;5058433;28;20063;-81
2022/07/05 13:01:24;;;;;;;4.95;0.60;;;22.70;96.10;;;;;;5057646;28;20056;-80
2022/07/05 13:03:56;;;;;;;4.57;0.70;;;22.70;95.20;;;;;;5056476;28;20044;-80